createdAt,value
2019-03-23T00:00:48.355Z,9.49
2019-03-23T00:03:23.755Z,9.41
2019-03-23T00:06:03.176Z,9.25
2019-03-23T00:08:37.614Z,9.41
2019-03-23T00:11:09.657Z,9.55
2019-03-23T00:13:45.332Z,9.47
2019-03-23T00:16:18.022Z,9.29
2019-03-23T00:18:52.424Z,9.28
2019-03-23T00:21:24.168Z,9.16
2019-03-23T00:23:57.575Z,9.09
2019-03-23T00:26:31.052Z,9.03
2019-03-23T00:29:34.440Z,8.99
2019-03-23T00:32:20.120Z,9.08
2019-03-23T00:35:14.207Z,9.38
2019-03-23T00:37:47.955Z,9.39
2019-03-23T00:40:20.581Z,9.33
2019-03-23T00:42:58.946Z,9.29
2019-03-23T00:45:33.024Z,9.06
2019-03-23T00:48:14.752Z,9.07
2019-03-23T00:50:54.341Z,9.05
2019-03-23T00:53:25.923Z,9.17
2019-03-23T00:55:57.896Z,9.13
2019-03-23T00:58:30.401Z,9.06
2019-03-23T01:01:14.484Z,9.03
2019-03-23T01:03:54.660Z,8.97
2019-03-23T01:06:38.906Z,9.01
2019-03-23T01:09:20.200Z,9.06
2019-03-23T01:12:00.108Z,9.24
2019-03-23T01:14:39.125Z,9.24
2019-03-23T01:17:23.001Z,9.16
2019-03-23T01:20:16.445Z,9.12
2019-03-23T01:22:56.192Z,9.07
2019-03-23T01:25:39.716Z,9.11
2019-03-23T01:28:19.059Z,9.08
2019-03-23T01:31:17.300Z,9.10
2019-03-23T01:34:01.871Z,8.94
2019-03-23T01:36:46.289Z,8.97
2019-03-23T01:39:40.391Z,8.99
2019-03-23T01:42:18.434Z,9.04
2019-03-23T01:44:55.872Z,9.12
2019-03-23T01:47:30.181Z,9.09
2019-03-23T01:50:18.720Z,8.97
2019-03-23T01:52:54.546Z,8.90
2019-03-23T01:55:27.815Z,8.85
2019-03-23T01:58:00.991Z,8.87
2019-03-23T02:00:35.078Z,8.81
2019-03-23T02:03:08.644Z,8.74
2019-03-23T02:05:39.626Z,8.75
2019-03-23T02:08:13.283Z,8.72
2019-03-23T02:10:45.270Z,8.64
2019-03-23T02:13:15.632Z,8.68
2019-03-23T02:15:49.087Z,8.58
2019-03-23T02:18:21.459Z,8.59
2019-03-23T02:20:55.585Z,8.66
2019-03-23T02:23:29.678Z,8.64
2019-03-23T02:26:04.588Z,8.58
2019-03-23T02:28:36.699Z,8.52
2019-03-23T02:31:08.685Z,8.46
2019-03-23T02:33:39.595Z,8.48
2019-03-23T02:36:11.617Z,8.58
2019-03-23T02:38:43.592Z,8.63
2019-03-23T02:41:19.480Z,8.71
2019-03-23T02:43:50.587Z,8.72
2019-03-23T02:46:22.510Z,8.69
2019-03-23T02:48:54.678Z,8.64
2019-03-23T02:51:28.210Z,8.62
2019-03-23T02:54:00.700Z,8.72
2019-03-23T02:56:33.454Z,8.64
2019-03-23T02:59:05.511Z,8.69
2019-03-23T03:01:38.798Z,8.76
2019-03-23T03:04:11.859Z,8.72
2019-03-23T03:06:46.858Z,8.83
2019-03-23T03:09:19.123Z,8.80
2019-03-23T03:12:05.740Z,8.71
2019-03-23T03:14:41.609Z,8.70
2019-03-23T03:17:16.998Z,8.57
2019-03-23T03:19:49.516Z,8.46
2019-03-23T03:22:24.335Z,8.48
2019-03-23T03:25:04.171Z,8.41
2019-03-23T03:27:41.608Z,8.42
2019-03-23T03:30:17.919Z,8.38
2019-03-23T03:33:03.459Z,8.40
2019-03-23T03:35:39.899Z,8.33
2019-03-23T03:38:25.588Z,8.25
2019-03-23T03:41:09.356Z,8.30
2019-03-23T03:43:43.730Z,8.44
2019-03-23T03:46:18.933Z,8.45
2019-03-23T03:49:11.787Z,8.46
2019-03-23T03:51:39.766Z,8.46
2019-03-23T03:54:18.129Z,8.44
2019-03-23T03:56:56.484Z,8.43
2019-03-23T03:59:33.072Z,8.46
2019-03-23T04:02:07.462Z,8.57
2019-03-23T04:04:41.839Z,8.60
2019-03-23T04:07:15.705Z,8.49
2019-03-23T04:09:47.911Z,8.56
2019-03-23T04:12:21.650Z,8.45
2019-03-23T04:15:14.013Z,8.31
2019-03-23T04:17:47.988Z,8.29
2019-03-23T04:20:26.626Z,8.43
2019-03-23T04:23:04.049Z,8.39
2019-03-23T04:25:47.448Z,8.38
2019-03-23T04:28:27.218Z,8.35
2019-03-23T04:31:02.407Z,8.38
2019-03-23T04:33:44.730Z,8.33
2019-03-23T04:36:26.364Z,8.59
2019-03-23T04:39:05.684Z,8.55
2019-03-23T04:41:40.590Z,8.55
2019-03-23T04:44:14.490Z,8.57
2019-03-23T04:46:56.370Z,8.44
2019-03-23T04:49:30.943Z,8.27
2019-03-23T04:52:06.003Z,8.39
2019-03-23T04:54:39.257Z,8.47
2019-03-23T04:57:13.425Z,8.53
2019-03-23T04:59:44.203Z,8.45
2019-03-23T05:02:20.456Z,8.41
2019-03-23T05:04:56.343Z,8.37
2019-03-23T05:07:34.481Z,8.31
2019-03-23T05:10:07.589Z,8.41
2019-03-23T05:12:40.398Z,8.48
2019-03-23T05:15:13.072Z,8.50
2019-03-23T05:17:45.938Z,8.39
2019-03-23T05:20:32.314Z,8.40
2019-03-23T05:23:04.872Z,8.33
2019-03-23T05:25:38.170Z,8.33
2019-03-23T05:28:08.799Z,8.57
2019-03-23T05:30:39.434Z,8.83
2019-03-23T05:33:10.427Z,9.00
2019-03-23T05:35:40.978Z,9.10
2019-03-23T05:38:12.121Z,9.26
2019-03-23T05:40:45.313Z,9.48
2019-03-23T05:43:18.189Z,9.90
2019-03-23T05:45:49.218Z,10.23
2019-03-23T05:48:20.812Z,10.47
2019-03-23T05:50:53.150Z,10.68
2019-03-23T05:53:25.449Z,10.90
2019-03-23T05:55:58.710Z,11.21
2019-03-23T05:58:29.932Z,11.49
2019-03-23T06:01:00.674Z,11.90
2019-03-23T06:03:31.715Z,12.30
2019-03-23T06:06:02.991Z,12.60
2019-03-23T06:08:34.108Z,12.74
2019-03-23T06:11:05.247Z,13.07
2019-03-23T06:13:38.252Z,13.26
2019-03-23T06:16:11.235Z,13.62
2019-03-23T06:18:45.550Z,13.67
2019-03-23T06:21:16.459Z,14.03
2019-03-23T06:23:48.879Z,14.54
2019-03-23T06:26:21.537Z,14.45
2019-03-23T06:28:53.587Z,14.44
2019-03-23T06:31:30.647Z,15.04
2019-03-23T06:34:02.271Z,15.75
2019-03-23T06:36:33.471Z,16.23
2019-03-23T06:39:06.671Z,16.29
2019-03-23T06:41:39.330Z,16.40
2019-03-23T06:44:10.900Z,16.34
2019-03-23T06:46:42.318Z,16.43
2019-03-23T06:49:13.283Z,16.63
2019-03-23T06:51:44.537Z,17.08
2019-03-23T06:54:15.459Z,16.87
2019-03-23T06:56:46.651Z,16.83
2019-03-23T06:59:18.573Z,17.32
2019-03-23T07:01:51.016Z,17.69
2019-03-23T07:04:22.407Z,17.88
2019-03-23T07:06:58.543Z,18.37
2019-03-23T07:09:34.819Z,17.77
2019-03-23T07:12:05.613Z,17.13
2019-03-23T07:14:36.603Z,17.95
2019-03-23T07:17:07.856Z,18.43
2019-03-23T07:19:39.766Z,18.62
2019-03-23T07:22:12.743Z,18.60
2019-03-23T07:24:48.006Z,18.25
2019-03-23T07:27:20.279Z,18.51
2019-03-23T07:29:51.401Z,19.09
2019-03-23T07:32:26.098Z,19.54
2019-03-23T07:34:58.975Z,19.49
2019-03-23T07:37:30.306Z,19.57
2019-03-23T07:40:03.886Z,19.23
2019-03-23T07:42:35.765Z,20.03
2019-03-23T07:45:20.614Z,20.72
2019-03-23T07:47:51.700Z,21.25
2019-03-23T07:50:22.762Z,20.84
2019-03-23T07:52:54.293Z,21.04
2019-03-23T07:55:24.322Z,21.23
2019-03-23T07:57:55.303Z,21.29
2019-03-23T08:00:27.188Z,21.48
2019-03-23T08:02:59.357Z,21.20
2019-03-23T08:05:30.534Z,21.57
2019-03-23T08:08:01.446Z,21.62
2019-03-23T08:10:37.923Z,21.90
2019-03-23T08:13:11.182Z,22.29
2019-03-23T08:15:42.434Z,22.63
2019-03-23T08:18:13.177Z,22.82
2019-03-23T08:20:53.013Z,22.59
2019-03-23T08:23:23.951Z,23.17
2019-03-23T08:25:54.791Z,22.84
2019-03-23T08:28:24.811Z,23.80
2019-03-23T08:30:54.829Z,23.77
2019-03-23T08:41:01.585Z,23.88
2019-03-23T08:43:32.081Z,24.40
2019-03-23T08:46:02.678Z,23.59
2019-03-23T08:48:34.198Z,23.04
2019-03-23T08:51:04.598Z,24.23
2019-03-23T08:53:35.078Z,24.11
2019-03-23T08:56:06.934Z,24.98
2019-03-23T08:58:35.657Z,25.27
2019-03-23T09:01:05.850Z,25.06
2019-03-23T09:03:36.036Z,25.12
2019-03-23T09:06:07.175Z,25.02
2019-03-23T09:08:38.940Z,25.09
2019-03-23T09:11:20.225Z,26.03
2019-03-23T09:13:42.504Z,26.45
2019-03-23T09:16:12.717Z,26.36
2019-03-23T09:18:44.333Z,26.56
2019-03-23T09:21:14.816Z,26.45
2019-03-23T09:23:48.118Z,25.82
2019-03-23T09:26:19.497Z,26.09
2019-03-23T09:28:50.185Z,23.74
2019-03-23T09:31:20.049Z,22.90
2019-03-23T09:33:50.273Z,23.65
2019-03-23T09:36:22.971Z,23.87
2019-03-23T09:38:52.462Z,24.28
2019-03-23T09:41:22.872Z,25.33
2019-03-23T09:43:53.045Z,25.31
2019-03-23T09:46:23.343Z,25.18
2019-03-23T09:48:54.839Z,25.15
2019-03-23T09:51:25.151Z,25.69
2019-03-23T09:53:55.347Z,24.41
2019-03-23T09:56:25.819Z,24.53
2019-03-23T09:58:56.191Z,25.87
2019-03-23T10:01:26.180Z,26.82
2019-03-23T10:03:56.156Z,27.22
2019-03-23T10:06:27.877Z,27.69
2019-03-23T10:08:58.116Z,27.46
2019-03-23T10:11:28.469Z,27.54
2019-03-23T10:13:58.805Z,27.79
2019-03-23T10:16:29.045Z,28.38
2019-03-23T10:19:06.910Z,27.69
2019-03-23T10:21:36.987Z,27.57
2019-03-23T10:24:06.997Z,28.34
2019-03-23T10:26:37.220Z,28.24
2019-03-23T10:29:07.335Z,28.19
2019-03-23T10:31:38.067Z,28.05
2019-03-23T10:34:08.325Z,27.76
2019-03-23T10:36:39.360Z,26.55
2019-03-23T10:39:10.281Z,27.63
2019-03-23T10:41:40.472Z,28.10
2019-03-23T10:44:11.860Z,27.96
2019-03-23T10:46:43.524Z,27.04
2019-03-23T10:49:13.800Z,27.99
2019-03-23T10:51:45.238Z,28.08
2019-03-23T10:54:17.088Z,27.90
2019-03-23T10:56:47.538Z,28.37
2019-03-23T10:59:17.490Z,28.73
2019-03-23T11:01:47.619Z,28.19
2019-03-23T11:04:19.154Z,29.01
2019-03-23T11:06:49.498Z,27.62
2019-03-23T11:09:19.754Z,28.55
2019-03-23T11:11:51.008Z,28.80
2019-03-23T11:14:22.499Z,29.02
2019-03-23T11:16:54.168Z,29.01
2019-03-23T11:19:24.225Z,28.69
2019-03-23T11:21:54.211Z,28.16
2019-03-23T11:24:24.281Z,28.07
2019-03-23T11:26:56.027Z,28.71
2019-03-23T11:29:28.353Z,28.53
2019-03-23T11:31:58.743Z,28.55
2019-03-23T11:34:29.001Z,28.19
2019-03-23T11:36:59.244Z,28.65
2019-03-23T11:39:29.503Z,28.88
2019-03-23T11:42:02.548Z,28.50
2019-03-23T11:44:33.109Z,28.74
2019-03-23T11:47:04.580Z,28.04
2019-03-23T11:49:36.847Z,27.66
2019-03-23T11:52:08.189Z,27.64
2019-03-23T11:54:39.851Z,28.11
2019-03-23T11:57:09.904Z,26.98
2019-03-23T11:59:40.095Z,26.90
2019-03-23T12:02:10.279Z,26.43
2019-03-23T12:04:41.605Z,25.71
2019-03-23T12:07:11.905Z,27.00
2019-03-23T12:09:44.211Z,25.86
2019-03-23T12:12:14.532Z,26.34
2019-03-23T12:14:49.954Z,27.03
2019-03-23T12:17:21.090Z,26.90
2019-03-23T12:19:51.233Z,27.20
2019-03-23T12:22:22.332Z,27.84
2019-03-23T12:24:52.586Z,28.32
2019-03-23T12:27:24.751Z,28.40
2019-03-23T12:29:55.753Z,28.34
2019-03-23T12:32:26.272Z,28.42
2019-03-23T12:34:56.539Z,27.70
2019-03-23T12:37:28.300Z,26.70
2019-03-23T12:39:58.417Z,27.77
2019-03-23T12:42:32.192Z,28.70
2019-03-23T12:45:04.301Z,28.36
2019-03-23T12:47:38.139Z,27.87
2019-03-23T12:50:10.559Z,27.21
2019-03-23T12:52:41.488Z,26.66
2019-03-23T12:55:11.596Z,27.50
2019-03-23T12:57:43.269Z,28.12
2019-03-23T13:00:15.498Z,28.38
2019-03-23T13:02:45.932Z,28.50
2019-03-23T13:05:16.313Z,28.68
2019-03-23T13:07:49.063Z,27.38
2019-03-23T13:10:20.706Z,25.83
2019-03-23T13:12:51.137Z,24.86
2019-03-23T13:15:22.708Z,25.52
2019-03-23T13:17:52.593Z,26.42
2019-03-23T13:20:23.663Z,27.13
2019-03-23T13:22:54.988Z,26.04
2019-03-23T13:25:25.563Z,25.94
2019-03-23T13:27:56.837Z,23.53
2019-03-23T13:30:27.308Z,23.27
2019-03-23T13:32:57.389Z,23.37
2019-03-23T13:35:28.673Z,23.08
2019-03-23T13:37:59.171Z,23.73
2019-03-23T13:40:30.725Z,24.76
2019-03-23T13:43:03.589Z,24.96
2019-03-23T13:45:42.556Z,24.48
2019-03-23T13:48:07.697Z,23.41
2019-03-23T13:50:38.283Z,24.21
2019-03-23T13:53:08.792Z,24.50
2019-03-23T13:55:40.640Z,25.26
2019-03-23T13:58:15.734Z,25.51
2019-03-23T14:00:46.038Z,23.06
2019-03-23T14:03:17.782Z,21.97
2019-03-23T14:05:48.288Z,22.47
2019-03-23T14:08:18.961Z,23.58
2019-03-23T14:10:52.079Z,23.85
2019-03-23T14:20:34.011Z,22.43
2019-03-23T14:23:04.999Z,22.21
2019-03-23T14:25:35.646Z,21.95
2019-03-23T14:28:08.837Z,21.63
2019-03-23T14:30:41.323Z,21.39
2019-03-23T14:33:11.921Z,21.13
2019-03-23T14:35:43.104Z,20.89
2019-03-23T14:38:14.679Z,20.80
2019-03-23T14:40:46.805Z,20.75
2019-03-23T14:43:17.309Z,20.73
2019-03-23T14:45:48.251Z,20.74
2019-03-23T14:48:18.277Z,20.72
2019-03-23T14:50:48.737Z,20.67
2019-03-23T14:53:18.923Z,20.76
2019-03-23T14:55:53.078Z,20.76
2019-03-23T14:58:43.626Z,20.69
2019-03-23T15:01:47.796Z,20.63
2019-03-23T15:04:49.090Z,20.58
2019-03-23T15:07:41.196Z,20.61
2019-03-23T15:10:26.778Z,20.60
2019-03-23T15:13:09.489Z,20.60
2019-03-23T15:15:44.373Z,20.68
2019-03-23T15:18:30.838Z,20.56
2019-03-23T15:21:14.942Z,20.51
2019-03-23T15:24:00.657Z,20.49
2019-03-23T15:26:40.016Z,20.49
2019-03-23T15:29:25.897Z,20.54
2019-03-23T15:32:26.499Z,20.60
2019-03-23T15:35:10.298Z,20.60
2019-03-23T15:37:43.963Z,20.55
2019-03-23T15:40:19.129Z,20.56
2019-03-23T15:42:52.861Z,20.57
2019-03-23T15:45:26.005Z,20.42
2019-03-23T15:47:58.631Z,20.28
2019-03-23T15:50:30.473Z,20.14
2019-03-23T15:53:10.417Z,20.28
2019-03-23T15:55:46.672Z,20.32
2019-03-23T15:58:20.867Z,20.29
2019-03-23T16:00:53.787Z,20.40
2019-03-23T16:03:23.900Z,20.34
2019-03-23T16:05:56.165Z,20.24
2019-03-23T16:08:26.240Z,20.30
2019-03-23T16:10:57.850Z,20.36
2019-03-23T16:13:28.200Z,20.25
2019-03-23T16:15:58.396Z,20.30
2019-03-23T16:18:28.349Z,20.05
2019-03-23T16:21:00.058Z,19.92
2019-03-23T16:23:31.190Z,20.00
2019-03-23T16:26:05.330Z,20.12
2019-03-23T16:28:36.100Z,20.14
2019-03-23T16:31:07.981Z,20.13
2019-03-23T16:33:38.331Z,20.18
2019-03-23T16:36:10.853Z,20.11
2019-03-23T16:38:42.312Z,20.05
2019-03-23T16:41:13.922Z,20.01
2019-03-23T16:43:46.374Z,19.71
2019-03-23T16:46:24.159Z,19.61
2019-03-23T16:48:56.531Z,19.50
2019-03-23T16:51:27.028Z,19.38
2019-03-23T16:53:57.358Z,19.19
2019-03-23T16:56:27.677Z,19.12
2019-03-23T16:58:59.960Z,19.09
2019-03-23T17:01:32.014Z,19.34
2019-03-23T17:04:04.579Z,19.14
2019-03-23T17:06:45.803Z,19.01
2019-03-23T17:09:15.184Z,18.94
2019-03-23T17:11:46.355Z,18.97
2019-03-23T17:14:17.086Z,18.90
2019-03-23T17:16:48.564Z,18.76
2019-03-23T17:19:18.910Z,18.69
2019-03-23T17:21:49.725Z,18.60
2019-03-23T17:24:19.849Z,18.55
2019-03-23T17:26:49.833Z,18.57
2019-03-23T17:29:21.971Z,18.51
2019-03-23T17:31:53.933Z,18.58
2019-03-23T17:34:25.060Z,18.42
2019-03-23T17:36:56.836Z,18.28
2019-03-23T17:39:27.352Z,18.24
2019-03-23T17:41:57.573Z,18.15
2019-03-23T17:44:30.592Z,18.11
2019-03-23T17:54:27.377Z,17.35
2019-03-23T18:03:30.353Z,16.73
2019-03-23T18:06:04.140Z,16.55
2019-03-23T18:08:35.179Z,16.51
2019-03-23T18:11:05.616Z,16.47
2019-03-23T18:13:36.373Z,16.29
2019-03-23T18:16:08.510Z,16.39
2019-03-23T18:18:39.011Z,16.29
2019-03-23T18:21:09.114Z,16.20
2019-03-23T18:23:39.819Z,16.02
2019-03-23T18:26:10.445Z,15.89
2019-03-23T18:28:41.691Z,15.86
2019-03-23T18:31:11.908Z,15.90
2019-03-23T18:33:49.734Z,16.50
2019-03-23T18:36:20.607Z,16.40
2019-03-23T18:38:52.444Z,16.23
2019-03-23T18:41:22.781Z,16.13
2019-03-23T18:43:55.028Z,16.02
2019-03-23T18:46:26.906Z,15.89
2019-03-23T18:48:57.497Z,15.79
2019-03-23T18:51:29.690Z,15.67
2019-03-23T18:54:00.190Z,15.68
2019-03-23T18:56:30.503Z,15.66
2019-03-23T18:59:02.401Z,15.61
2019-03-23T19:01:36.212Z,15.38
2019-03-23T19:04:06.543Z,15.24
2019-03-23T19:06:37.140Z,15.08
2019-03-23T19:09:08.828Z,14.98
2019-03-23T19:11:39.210Z,14.77
2019-03-23T19:14:09.220Z,14.68
2019-03-23T19:16:41.228Z,14.68
2019-03-23T19:19:11.945Z,14.65
2019-03-23T19:21:44.121Z,14.70
2019-03-23T19:24:14.843Z,14.50
2019-03-23T19:26:45.151Z,14.51
2019-03-23T19:29:16.967Z,14.49
2019-03-23T19:31:48.933Z,14.48
2019-03-23T19:34:20.256Z,14.59
2019-03-23T19:36:50.712Z,14.58
2019-03-23T19:39:20.864Z,14.39
2019-03-23T19:41:52.554Z,14.44
2019-03-23T19:44:23.094Z,14.32
2019-03-23T19:46:53.448Z,14.13
2019-03-23T19:49:24.010Z,14.00
2019-03-23T19:51:58.078Z,13.85
2019-03-23T19:54:32.004Z,13.71
2019-03-23T19:57:08.401Z,13.76
2019-03-23T19:59:40.590Z,13.59
2019-03-23T20:02:22.146Z,13.49
2019-03-23T20:05:02.318Z,13.50
2019-03-23T20:07:36.092Z,13.58
2019-03-23T20:10:17.054Z,13.54
2019-03-23T20:12:53.797Z,13.71
2019-03-23T20:15:31.430Z,13.71
2019-03-23T20:18:08.635Z,13.53
2019-03-23T20:20:48.708Z,13.29
2019-03-23T20:23:38.487Z,12.96
2019-03-23T20:26:21.058Z,12.67
2019-03-23T20:28:59.338Z,12.48
2019-03-23T20:31:36.692Z,12.83
2019-03-23T20:34:08.882Z,12.95
2019-03-23T20:36:45.134Z,13.02
2019-03-23T20:39:24.229Z,13.12
2019-03-23T20:42:02.903Z,12.85
2019-03-23T20:44:47.347Z,12.58
2019-03-23T20:47:25.067Z,12.41
2019-03-23T20:49:59.328Z,12.48
2019-03-23T20:52:32.981Z,12.50
2019-03-23T20:55:16.519Z,12.61
2019-03-23T20:57:54.105Z,12.82
2019-03-23T21:00:29.721Z,13.07
2019-03-23T21:03:01.549Z,13.16
2019-03-23T21:05:38.108Z,13.08
2019-03-23T21:08:09.686Z,13.08
2019-03-23T21:10:43.776Z,13.11
2019-03-23T21:13:30.586Z,13.04
2019-03-23T21:16:10.808Z,12.96
2019-03-23T21:18:45.643Z,12.70
2019-03-23T21:21:32.598Z,12.68
2019-03-23T21:24:11.055Z,12.74
2019-03-23T21:26:43.851Z,12.93
2019-03-23T21:29:17.430Z,13.03
2019-03-23T21:31:56.039Z,13.02
2019-03-23T21:34:31.228Z,13.10
2019-03-23T21:37:09.668Z,13.02
2019-03-23T21:39:54.103Z,12.89
2019-03-23T21:42:41.079Z,12.84
2019-03-23T21:45:29.306Z,12.77
2019-03-23T21:48:11.849Z,12.89
2019-03-23T21:50:50.790Z,12.88
2019-03-23T21:53:27.756Z,12.65
2019-03-23T21:56:19.652Z,12.58
2019-03-23T21:58:54.735Z,12.77
2019-03-23T22:01:26.804Z,12.83
2019-03-23T22:03:58.431Z,12.77
2019-03-23T22:06:30.578Z,12.64
2019-03-23T22:09:06.991Z,12.62
2019-03-23T22:11:42.155Z,12.85
2019-03-23T22:14:14.806Z,12.80
2019-03-23T22:16:47.236Z,12.73
2019-03-23T22:19:33.450Z,12.66
2019-03-23T22:22:06.953Z,12.61
2019-03-23T22:24:58.329Z,12.68
2019-03-23T22:27:32.031Z,12.61
2019-03-23T22:30:08.444Z,12.68
2019-03-23T22:32:41.754Z,12.69
2019-03-23T22:35:14.523Z,12.58
2019-03-23T22:37:52.137Z,12.40
2019-03-23T22:40:23.582Z,12.34
2019-03-23T22:42:56.380Z,12.26
2019-03-23T22:45:31.058Z,12.24
2019-03-23T22:48:05.508Z,12.36
2019-03-23T22:50:38.921Z,12.28
2019-03-23T22:53:18.387Z,12.28
2019-03-23T22:56:04.483Z,12.18
2019-03-23T22:58:57.856Z,12.14
2019-03-23T23:02:06.924Z,12.08
2019-03-23T23:04:52.439Z,12.02
2019-03-23T23:07:43.549Z,11.95
2019-03-23T23:10:31.334Z,11.85
2019-03-23T23:13:19.086Z,11.72
2019-03-23T23:16:07.031Z,11.74
2019-03-23T23:18:53.652Z,11.67
2019-03-23T23:21:50.752Z,11.78
2019-03-23T23:24:34.913Z,11.78
2019-03-23T23:27:38.663Z,11.85
2019-03-23T23:30:30.360Z,11.72
2019-03-23T23:33:07.774Z,11.75
2019-03-23T23:35:47.104Z,11.76
2019-03-23T23:38:34.038Z,11.78
2019-03-23T23:41:30.660Z,11.66
2019-03-23T23:44:09.319Z,11.33
2019-03-23T23:46:51.065Z,11.13
2019-03-23T23:49:47.376Z,11.30
2019-03-23T23:52:32.487Z,11.34
2019-03-23T23:55:09.060Z,11.53
2019-03-23T23:57:43.192Z,11.55
